Flight Track Log - Related Links

Times and Time Zones

All times are in EDT time to prevent confusion due to time zone crossing. See the LOF3416 flight status page for this flight to view local times or setup timezone preferences in your user account.

Time Position Orientation Groundspeed Altitude Reporting Facility
EDT Latitude Longitude Course Direction KTS MPH feet Rate Location/Type
Mon 07:41:11 PM 37.2892 -93.1961 33° Northeast 261 300 9,300  Level Kansas City Center
Mon 07:42:13 PM 37.3689 -93.1272 34° Northeast 278 320 11,500 1,805 Climbing Kansas City Center
Mon 07:43:14 PM 37.4419 -93.0661 34° Northeast 299 344 13,000 1,463 Climbing Kansas City Center
Mon 07:44:00 PM 37.7340 -92.9328 38° Northeast  Level FlightAware Approximate
Mon 07:44:16 PM 37.5192 -93.0028 33° Northeast 319 367 14,500  Level Kansas City Center
Mon 07:45:00 PM 37.8147 -92.8521 38° Northeast  Level FlightAware Approximate
Mon 07:45:18 PM 37.5975 -92.9383 33° Northeast 331 381 16,000  Level Kansas City Center
Mon 07:46:20 PM 37.6764 -92.8703 34° Northeast 341 392 17,400 1,220 Climbing Kansas City Center
Mon 07:47:21 PM 37.7569 -92.8011 34° Northeast 346 398 18,500 1,171 Climbing Kansas City Center
Mon 07:48:23 PM 37.8489 -92.7225 34° Northeast 359 413 19,800 1,210 Climbing Kansas City Center
Mon 07:49:25 PM 37.9347 -92.6494 34° Northeast 368 423 21,000 1,161 Climbing Kansas City Center
Mon 07:50:27 PM 38.0219 -92.5739 34° Northeast 377 434 22,200 1,171 Climbing Kansas City Center
Mon 07:51:28 PM 38.1108 -92.4981 34° Northeast 383 441 23,400 1,268 Climbing Kansas City Center
Mon 07:52:30 PM 38.2156 -92.4075 34° Northeast 386 444 24,800 1,258 Climbing Kansas City Center
Mon 07:53:32 PM 38.3050 -92.3289 35° Northeast 386 444 26,000 1,065 Climbing Kansas City Center
Mon 07:54:34 PM 38.3944 -92.2517 34° Northeast 386 444 27,000 488 Climbing Kansas City Center
Mon 07:55:35 PM 38.4881 -92.1706 34° Northeast 394 453 27,000  Level Kansas City Center
Mon 07:56:37 PM 38.5889 -92.0828 34° Northeast 415 478 27,000  Level Kansas City Center
Mon 07:57:39 PM 38.6925 -91.9908 35° Northeast 435 501 27,000  Level Kansas City Center
Mon 07:58:41 PM 38.7986 -91.8969 35° Northeast 449 517 27,000  Level Kansas City Center
Mon 07:59:43 PM 38.9047 -91.8033 34° Northeast 457 526 27,000  Level Kansas City Center
Mon 08:00:45 PM 39.0342 -91.6892 34° Northeast 465 535 27,000  Level Kansas City Center
Mon 08:01:47 PM 39.1431 -91.5917 35° Northeast 470 541 27,000  Level Kansas City Center
Mon 08:02:48 PM 39.2511 -91.4950 35° Northeast 473 544 27,000  Level Kansas City Center
Mon 08:03:50 PM 39.3583 -91.3986 35° Northeast 471 542 27,000  Level Kansas City Center
Mon 08:04:52 PM 39.4656 -91.3014 35° Northeast 469 540 27,000  Level Kansas City Center
Mon 08:05:54 PM 39.5739 -91.2036 35° Northeast 470 541 27,000  Level Kansas City Center
Mon 08:06:56 PM 39.6808 -91.1067 35° Northeast 470 541 27,000  Level Kansas City Center
Mon 08:07:58 PM 39.7906 -90.9981 37° Northeast 473 544 27,000  Level Kansas City Center
Mon 08:08:59 PM 39.9106 -90.8772 38° Northeast 472 543 27,000  Level Kansas City Center
Mon 08:10:01 PM 40.0117 -90.7667 40° Northeast 473 544 27,000  Level Kansas City Center
Mon 08:11:03 PM 40.0972 -90.6314 50° Northeast 479 551 27,000  Level Kansas City Center
Mon 08:12:05 PM 40.1769 -90.4928 53° Northeast 479 551 27,000  Level Kansas City Center
Mon 08:13:07 PM 40.2586 -90.3550 52° Northeast 480 552 27,000  Level Kansas City Center
Mon 08:14:09 PM 40.3544 -90.2353 44° Northeast 477 549 27,000  Level Kansas City Center
Mon 08:15:10 PM 40.4481 -90.1153 44° Northeast 474 545 27,000  Level Kansas City Center
Mon 08:16:10 PM 40.5411 -89.9925 45° Northeast 470 541 27,000 -246 Level Chicago Center
Mon 08:17:12 PM 40.6506 -89.8447 46° Northeast 470 541 26,500 -1,355 Descending Chicago Center
Mon 08:18:14 PM 40.7472 -89.7269 43° Northeast 473 544 24,200 -1,210 Descending Chicago Center
Mon 08:19:16 PM 40.8328 -89.6142 45° Northeast 439 505 24,000 -97 Descending Chicago Center
Mon 08:20:18 PM 40.9100 -89.5128 45° Northeast 431 496 24,000 -145 Level Chicago Center
Mon 08:21:20 PM 41.0139 -89.3781 44° Northeast 435 501 23,700 -823 Descending Chicago Center
Mon 08:22:22 PM 41.1006 -89.2625 45° Northeast 442 509 22,300 -1,694 Descending Chicago Center
Mon 08:23:24 PM 41.1911 -89.1400 45° Northeast 439 505 20,200 -1,984 Descending Chicago Center
Mon 08:24:26 PM 41.2750 -89.0303 44° Northeast 429 494 18,200 -1,839 Descending Chicago Center
Mon 08:25:28 PM 41.3506 -88.9264 46° Northeast 398 458 16,400 -1,872 Descending Chicago Center
Mon 08:26:31 PM 41.4236 -88.8281 45° Northeast 378 435 14,300 -2,064 Descending Chicago Center
Mon 08:27:33 PM 41.4967 -88.7300 45° Northeast 374 430 12,100 -1,597 Descending Chicago Center
Mon 08:28:35 PM 41.5586 -88.5892 60° Northeast 372 428 11,000 -532 Descending Chicago Center
Mon 08:29:37 PM 41.6097 -88.4653 61° Northeast 380 437 11,000  Level Chicago Center
Mon 08:30:39 PM 41.6744 -88.3544 52° Northeast 377 434 11,000  Level Chicago Center
Mon 08:31:41 PM 41.7383 -88.2439 52° Northeast 375 432 11,000  Level Chicago Center
Mon 08:32:43 PM 41.8014 -88.1344 52° Northeast 373 429 11,000 -242 Level Chicago Center
Mon 08:33:45 PM 41.8617 -88.0286 53° Northeast 360 414 10,500 -804 Descending Chicago Center
Mon 08:34:20 PM 41.8833 -87.9500 70° East 322 371 9,700 -1,389 Descending Chicago TRACON
Mon 08:35:20 PM 41.8833 -87.8333 90° East 309 356 8,300 -1,686 Descending Chicago TRACON
Mon 08:36:21 PM 41.8833 -87.7167 90° East 296 341 6,300 -1,780 Descending Chicago TRACON
Mon 08:36:51 PM 41.8842 -87.6694 89° East 302 348 5,600 -848 Descending Chicago Center
Mon 08:37:53 PM 41.8844 -87.5647 90° East 291 335 5,000 -290 Descending Chicago Center
Mon 08:38:55 PM 41.8833 -87.4636 91° East 282 325 5,000  Level Chicago Center
Mon 08:39:57 PM 41.8831 -87.3697 90° East 264 304 5,000  Level Chicago Center
Mon 08:41:00 PM 41.9378 -87.3153 36° Northeast 235 270 5,000  Level Chicago Center
Mon 08:42:01 PM 41.9700 -87.3675 310° West 240 276 5,000  Level Chicago Center
Mon 08:43:04 PM 41.9681 -87.4436 268° West 208 239 5,000  Level Chicago Center
Mon 08:44:06 PM 41.9686 -87.5058 271° West 179 206 5,000 -48 Level Chicago Center
Mon 08:45:08 PM 41.9689 -87.5669 270° West 166 191 4,900 -484 Descending Chicago Center
Mon 08:46:10 PM 41.9694 -87.6433 271° West 171 197 4,000 -871 Descending Chicago Center
Mon 08:47:12 PM 41.9692 -87.7078 270° West 172 198 3,100 -823 Descending Chicago Center
Mon 08:48:14 PM 41.9689 -87.7697 270° West 171 197 2,300 -726 Descending Chicago Center
Mon 08:49:16 PM 41.9689 -87.8197 270° West 158 182 1,600 -581 Descending Chicago Center
Mon 08:50:18 PM 41.9689 -87.8681 270° West 142 163 1,100 -484 Descending Chicago Center

Login

Don't have an account? Register now (free) for customized features, flight alerts, and more!